sensor_id;sensor_type;location;lat;lon;timestamp;P1;durP1;ratioP1;P2;durP2;ratioP2
57567;SDS011;43403;51.948;5.922;2022-12-29T00:01:45;4.40;;;2.75;;
57567;SDS011;43403;51.948;5.922;2022-12-29T00:04:11;4.10;;;2.75;;
57567;SDS011;43403;51.948;5.922;2022-12-29T00:06:41;4.63;;;2.90;;
57567;SDS011;43403;51.948;5.922;2022-12-29T00:09:08;4.10;;;2.28;;
57567;SDS011;43403;51.948;5.922;2022-12-29T00:11:38;3.15;;;2.42;;
57567;SDS011;43403;51.948;5.922;2022-12-29T00:14:04;6.00;;;2.72;;
57567;SDS011;43403;51.948;5.922;2022-12-29T00:16:51;4.00;;;2.47;;
57567;SDS011;43403;51.948;5.922;2022-12-29T00:19:18;3.17;;;2.50;;
57567;SDS011;43403;51.948;5.922;2022-12-29T00:22:03;3.92;;;2.70;;
57567;SDS011;43403;51.948;5.922;2022-12-29T00:24:50;3.55;;;2.70;;
57567;SDS011;43403;51.948;5.922;2022-12-29T00:27:19;5.03;;;3.13;;
57567;SDS011;43403;51.948;5.922;2022-12-29T00:30:08;4.68;;;2.45;;
57567;SDS011;43403;51.948;5.922;2022-12-29T00:32:54;3.80;;;2.65;;
57567;SDS011;43403;51.948;5.922;2022-12-29T00:35:42;3.08;;;2.40;;
57567;SDS011;43403;51.948;5.922;2022-12-29T00:38:11;3.40;;;2.17;;
57567;SDS011;43403;51.948;5.922;2022-12-29T00:40:58;3.55;;;2.30;;
57567;SDS011;43403;51.948;5.922;2022-12-29T00:43:43;3.95;;;2.53;;
57567;SDS011;43403;51.948;5.922;2022-12-29T00:46:28;5.13;;;1.83;;
57567;SDS011;43403;51.948;5.922;2022-12-29T00:48:54;2.92;;;2.42;;
57567;SDS011;43403;51.948;5.922;2022-12-29T00:51:40;3.65;;;2.03;;
57567;SDS011;43403;51.948;5.922;2022-12-29T00:54:06;4.85;;;2.10;;
57567;SDS011;43403;51.948;5.922;2022-12-29T00:56:33;3.25;;;1.90;;
57567;SDS011;43403;51.948;5.922;2022-12-29T00:59:09;2.65;;;1.70;;
57567;SDS011;43403;51.948;5.922;2022-12-29T01:01:37;2.30;;;1.73;;
57567;SDS011;43403;51.948;5.922;2022-12-29T01:04:04;2.85;;;1.38;;
57567;SDS011;43403;51.948;5.922;2022-12-29T01:06:32;3.90;;;1.70;;
57567;SDS011;43403;51.948;5.922;2022-12-29T01:08:59;3.20;;;1.60;;
57567;SDS011;43403;51.948;5.922;2022-12-29T01:11:44;2.08;;;1.25;;
57567;SDS011;43403;51.948;5.922;2022-12-29T01:14:11;3.13;;;1.30;;
57567;SDS011;43403;51.948;5.922;2022-12-29T01:16:37;2.13;;;1.13;;
57567;SDS011;43403;51.948;5.922;2022-12-29T01:19:04;1.80;;;1.15;;
57567;SDS011;43403;51.948;5.922;2022-12-29T01:21:30;2.40;;;1.00;;
57567;SDS011;43403;51.948;5.922;2022-12-29T01:23:58;1.02;;;0.95;;
57567;SDS011;43403;51.948;5.922;2022-12-29T01:26:25;3.17;;;1.00;;
57567;SDS011;43403;51.948;5.922;2022-12-29T01:28:51;2.65;;;1.10;;
57567;SDS011;43403;51.948;5.922;2022-12-29T01:31:18;1.55;;;1.05;;
57567;SDS011;43403;51.948;5.922;2022-12-29T01:33:45;1.60;;;0.90;;
57567;SDS011;43403;51.948;5.922;2022-12-29T01:36:12;2.38;;;0.88;;
57567;SDS011;43403;51.948;5.922;2022-12-29T01:38:40;3.20;;;1.20;;
57567;SDS011;43403;51.948;5.922;2022-12-29T01:41:08;1.67;;;0.98;;
57567;SDS011;43403;51.948;5.922;2022-12-29T01:49:02;2.38;;;1.50;;
57567;SDS011;43403;51.948;5.922;2022-12-29T01:51:41;1.60;;;1.33;;
57567;SDS011;43403;51.948;5.922;2022-12-29T01:54:13;1.33;;;1.20;;
57567;SDS011;43403;51.948;5.922;2022-12-29T01:56:44;3.05;;;1.40;;
57567;SDS011;43403;51.948;5.922;2022-12-29T01:59:13;2.93;;;1.30;;
57567;SDS011;43403;51.948;5.922;2022-12-29T02:01:43;4.15;;;1.60;;
57567;SDS011;43403;51.948;5.922;2022-12-29T02:04:10;1.83;;;1.52;;
57567;SDS011;43403;51.948;5.922;2022-12-29T02:06:47;2.28;;;1.40;;
57567;SDS011;43403;51.948;5.922;2022-12-29T02:09:18;3.15;;;1.80;;
57567;SDS011;43403;51.948;5.922;2022-12-29T02:11:45;2.50;;;1.40;;
57567;SDS011;43403;51.948;5.922;2022-12-29T02:14:13;2.25;;;1.40;;
57567;SDS011;43403;51.948;5.922;2022-12-29T02:22:37;1.67;;;1.30;;
57567;SDS011;43403;51.948;5.922;2022-12-29T02:31:16;1.75;;;1.38;;
57567;SDS011;43403;51.948;5.922;2022-12-29T02:37:12;2.50;;;0.95;;
57567;SDS011;43403;51.948;5.922;2022-12-29T02:39:49;2.35;;;1.00;;
57567;SDS011;43403;51.948;5.922;2022-12-29T02:45:15;2.47;;;0.80;;
57567;SDS011;43403;51.948;5.922;2022-12-29T02:47:49;5.35;;;0.90;;
57567;SDS011;43403;51.948;5.922;2022-12-29T02:50:27;0.93;;;0.70;;
57567;SDS011;43403;51.948;5.922;2022-12-29T02:53:07;3.80;;;0.70;;
57567;SDS011;43403;51.948;5.922;2022-12-29T02:55:37;3.78;;;0.85;;
57567;SDS011;43403;51.948;5.922;2022-12-29T02:58:22;1.33;;;0.70;;
57567;SDS011;43403;51.948;5.922;2022-12-29T03:12:03;2.10;;;1.08;;
57567;SDS011;43403;51.948;5.922;2022-12-29T03:14:45;2.15;;;0.75;;
57567;SDS011;43403;51.948;5.922;2022-12-29T03:20:55;4.78;;;1.02;;
57567;SDS011;43403;51.948;5.922;2022-12-29T03:23:29;3.30;;;1.17;;
57567;SDS011;43403;51.948;5.922;2022-12-29T03:25:58;2.67;;;0.70;;
57567;SDS011;43403;51.948;5.922;2022-12-29T03:28:35;1.88;;;0.80;;
57567;SDS011;43403;51.948;5.922;2022-12-29T03:31:07;1.95;;;0.73;;
57567;SDS011;43403;51.948;5.922;2022-12-29T03:33:35;3.05;;;0.93;;
57567;SDS011;43403;51.948;5.922;2022-12-29T03:36:06;2.70;;;0.50;;
57567;SDS011;43403;51.948;5.922;2022-12-29T03:38:38;1.67;;;0.60;;
57567;SDS011;43403;51.948;5.922;2022-12-29T03:41:07;1.33;;;0.63;;
57567;SDS011;43403;51.948;5.922;2022-12-29T03:43:37;2.30;;;0.70;;
57567;SDS011;43403;51.948;5.922;2022-12-29T03:46:04;2.50;;;0.70;;
57567;SDS011;43403;51.948;5.922;2022-12-29T03:48:30;2.55;;;1.20;;
57567;SDS011;43403;51.948;5.922;2022-12-29T03:50:59;1.90;;;0.55;;
57567;SDS011;43403;51.948;5.922;2022-12-29T03:53:26;2.92;;;0.77;;
57567;SDS011;43403;51.948;5.922;2022-12-29T03:55:52;2.35;;;0.60;;
57567;SDS011;43403;51.948;5.922;2022-12-29T03:58:18;1.65;;;0.50;;
57567;SDS011;43403;51.948;5.922;2022-12-29T04:00:45;3.22;;;0.80;;
57567;SDS011;43403;51.948;5.922;2022-12-29T04:03:11;3.78;;;0.80;;
57567;SDS011;43403;51.948;5.922;2022-12-29T04:05:38;3.40;;;0.75;;
57567;SDS011;43403;51.948;5.922;2022-12-29T04:08:05;4.65;;;0.85;;
57567;SDS011;43403;51.948;5.922;2022-12-29T04:10:31;1.65;;;0.60;;
57567;SDS011;43403;51.948;5.922;2022-12-29T04:12:59;1.52;;;0.70;;
57567;SDS011;43403;51.948;5.922;2022-12-29T04:15:25;2.45;;;0.80;;
57567;SDS011;43403;51.948;5.922;2022-12-29T04:17:52;1.20;;;0.60;;
57567;SDS011;43403;51.948;5.922;2022-12-29T04:20:19;2.78;;;0.93;;
57567;SDS011;43403;51.948;5.922;2022-12-29T04:23:04;2.35;;;0.77;;
57567;SDS011;43403;51.948;5.922;2022-12-29T04:25:32;1.80;;;0.75;;
57567;SDS011;43403;51.948;5.922;2022-12-29T04:27:59;2.10;;;0.70;;
57567;SDS011;43403;51.948;5.922;2022-12-29T04:30:26;2.92;;;0.93;;
57567;SDS011;43403;51.948;5.922;2022-12-29T04:32:53;4.07;;;1.08;;
57567;SDS011;43403;51.948;5.922;2022-12-29T04:35:20;5.50;;;1.00;;
57567;SDS011;43403;51.948;5.922;2022-12-29T04:37:47;3.25;;;1.10;;
57567;SDS011;43403;51.948;5.922;2022-12-29T04:40:13;2.60;;;0.80;;
57567;SDS011;43403;51.948;5.922;2022-12-29T04:42:39;3.58;;;1.00;;
57567;SDS011;43403;51.948;5.922;2022-12-29T04:45:06;4.95;;;0.80;;
57567;SDS011;43403;51.948;5.922;2022-12-29T04:47:33;4.00;;;0.80;;
57567;SDS011;43403;51.948;5.922;2022-12-29T04:50:00;1.63;;;0.70;;
57567;SDS011;43403;51.948;5.922;2022-12-29T04:52:26;3.67;;;1.05;;
57567;SDS011;43403;51.948;5.922;2022-12-29T04:54:52;1.50;;;0.65;;
57567;SDS011;43403;51.948;5.922;2022-12-29T04:57:19;5.60;;;1.02;;
57567;SDS011;43403;51.948;5.922;2022-12-29T04:59:45;2.35;;;0.80;;
57567;SDS011;43403;51.948;5.922;2022-12-29T05:02:12;3.40;;;0.85;;
57567;SDS011;43403;51.948;5.922;2022-12-29T05:04:39;6.43;;;1.00;;
57567;SDS011;43403;51.948;5.922;2022-12-29T05:07:06;3.80;;;0.90;;
57567;SDS011;43403;51.948;5.922;2022-12-29T05:09:32;3.17;;;1.02;;
57567;SDS011;43403;51.948;5.922;2022-12-29T05:11:58;1.80;;;0.75;;
57567;SDS011;43403;51.948;5.922;2022-12-29T05:14:25;5.78;;;1.30;;
57567;SDS011;43403;51.948;5.922;2022-12-29T05:16:52;3.90;;;0.80;;
57567;SDS011;43403;51.948;5.922;2022-12-29T05:19:18;1.85;;;0.85;;
57567;SDS011;43403;51.948;5.922;2022-12-29T05:21:45;2.38;;;0.82;;
57567;SDS011;43403;51.948;5.922;2022-12-29T05:24:11;2.63;;;1.10;;
57567;SDS011;43403;51.948;5.922;2022-12-29T05:26:38;2.00;;;0.90;;
57567;SDS011;43403;51.948;5.922;2022-12-29T05:29:04;4.72;;;1.00;;
57567;SDS011;43403;51.948;5.922;2022-12-29T05:31:31;4.80;;;1.23;;
57567;SDS011;43403;51.948;5.922;2022-12-29T05:33:57;7.30;;;1.20;;
57567;SDS011;43403;51.948;5.922;2022-12-29T05:36:23;6.35;;;1.27;;
57567;SDS011;43403;51.948;5.922;2022-12-29T05:38:50;2.47;;;0.80;;
57567;SDS011;43403;51.948;5.922;2022-12-29T05:41:17;3.90;;;0.95;;
57567;SDS011;43403;51.948;5.922;2022-12-29T05:43:43;3.40;;;0.80;;
57567;SDS011;43403;51.948;5.922;2022-12-29T05:46:10;5.53;;;1.20;;
57567;SDS011;43403;51.948;5.922;2022-12-29T05:48:37;3.83;;;0.98;;
57567;SDS011;43403;51.948;5.922;2022-12-29T05:51:03;2.13;;;0.80;;
57567;SDS011;43403;51.948;5.922;2022-12-29T05:53:30;1.65;;;0.75;;
57567;SDS011;43403;51.948;5.922;2022-12-29T05:55:56;2.65;;;1.02;;
57567;SDS011;43403;51.948;5.922;2022-12-29T05:58:23;6.93;;;1.30;;
57567;SDS011;43403;51.948;5.922;2022-12-29T06:00:49;5.45;;;1.20;;
57567;SDS011;43403;51.948;5.922;2022-12-29T06:03:17;3.50;;;1.25;;
57567;SDS011;43403;51.948;5.922;2022-12-29T06:05:46;5.82;;;1.20;;
57567;SDS011;43403;51.948;5.922;2022-12-29T06:08:13;5.88;;;1.42;;
57567;SDS011;43403;51.948;5.922;2022-12-29T06:10:39;6.45;;;1.20;;
57567;SDS011;43403;51.948;5.922;2022-12-29T06:13:06;4.20;;;1.15;;
57567;SDS011;43403;51.948;5.922;2022-12-29T06:15:32;8.65;;;1.10;;
57567;SDS011;43403;51.948;5.922;2022-12-29T06:17:59;7.38;;;1.83;;
57567;SDS011;43403;51.948;5.922;2022-12-29T06:20:26;9.25;;;1.10;;
57567;SDS011;43403;51.948;5.922;2022-12-29T06:22:52;8.05;;;1.30;;
57567;SDS011;43403;51.948;5.922;2022-12-29T06:25:19;9.93;;;1.10;;
57567;SDS011;43403;51.948;5.922;2022-12-29T06:27:45;5.70;;;1.20;;
57567;SDS011;43403;51.948;5.922;2022-12-29T06:30:12;11.65;;;1.70;;
57567;SDS011;43403;51.948;5.922;2022-12-29T06:32:39;11.30;;;1.58;;
57567;SDS011;43403;51.948;5.922;2022-12-29T06:35:05;5.40;;;1.33;;
57567;SDS011;43403;51.948;5.922;2022-12-29T06:37:32;7.75;;;1.20;;
57567;SDS011;43403;51.948;5.922;2022-12-29T06:39:59;6.63;;;1.17;;
57567;SDS011;43403;51.948;5.922;2022-12-29T06:42:25;4.82;;;1.00;;
57567;SDS011;43403;51.948;5.922;2022-12-29T06:44:51;4.65;;;1.00;;
57567;SDS011;43403;51.948;5.922;2022-12-29T06:47:18;7.20;;;1.00;;
57567;SDS011;43403;51.948;5.922;2022-12-29T06:49:45;5.28;;;0.98;;
57567;SDS011;43403;51.948;5.922;2022-12-29T06:52:11;6.95;;;1.10;;
57567;SDS011;43403;51.948;5.922;2022-12-29T06:54:39;7.13;;;1.05;;
57567;SDS011;43403;51.948;5.922;2022-12-29T06:57:05;5.18;;;0.90;;
57567;SDS011;43403;51.948;5.922;2022-12-29T06:59:32;5.80;;;2.15;;
57567;SDS011;43403;51.948;5.922;2022-12-29T07:01:59;6.63;;;1.50;;
57567;SDS011;43403;51.948;5.922;2022-12-29T07:04:25;6.22;;;0.90;;
57567;SDS011;43403;51.948;5.922;2022-12-29T07:06:52;10.05;;;1.00;;
57567;SDS011;43403;51.948;5.922;2022-12-29T07:09:18;5.18;;;0.95;;
57567;SDS011;43403;51.948;5.922;2022-12-29T07:11:45;4.68;;;0.93;;
57567;SDS011;43403;51.948;5.922;2022-12-29T07:14:11;4.55;;;0.93;;
57567;SDS011;43403;51.948;5.922;2022-12-29T07:16:38;4.85;;;1.10;;
57567;SDS011;43403;51.948;5.922;2022-12-29T07:19:04;12.07;;;1.02;;
57567;SDS011;43403;51.948;5.922;2022-12-29T07:21:32;6.85;;;1.10;;
57567;SDS011;43403;51.948;5.922;2022-12-29T07:23:58;7.97;;;0.85;;
57567;SDS011;43403;51.948;5.922;2022-12-29T07:26:25;6.85;;;1.25;;
57567;SDS011;43403;51.948;5.922;2022-12-29T07:28:59;4.72;;;0.80;;
57567;SDS011;43403;51.948;5.922;2022-12-29T07:31:26;5.25;;;1.13;;
57567;SDS011;43403;51.948;5.922;2022-12-29T07:33:53;8.68;;;1.17;;
57567;SDS011;43403;51.948;5.922;2022-12-29T07:36:20;4.85;;;1.00;;
57567;SDS011;43403;51.948;5.922;2022-12-29T07:38:46;5.43;;;0.85;;
57567;SDS011;43403;51.948;5.922;2022-12-29T07:41:13;7.00;;;1.13;;
57567;SDS011;43403;51.948;5.922;2022-12-29T07:43:39;8.00;;;1.20;;
57567;SDS011;43403;51.948;5.922;2022-12-29T07:46:09;7.70;;;1.10;;
57567;SDS011;43403;51.948;5.922;2022-12-29T07:48:56;7.22;;;1.02;;
57567;SDS011;43403;51.948;5.922;2022-12-29T07:51:22;7.47;;;1.00;;
57567;SDS011;43403;51.948;5.922;2022-12-29T07:53:49;6.28;;;1.13;;
57567;SDS011;43403;51.948;5.922;2022-12-29T07:56:15;7.30;;;0.95;;
57567;SDS011;43403;51.948;5.922;2022-12-29T07:58:42;5.15;;;1.00;;
57567;SDS011;43403;51.948;5.922;2022-12-29T08:01:08;9.20;;;1.45;;
57567;SDS011;43403;51.948;5.922;2022-12-29T08:03:35;6.00;;;1.48;;
57567;SDS011;43403;51.948;5.922;2022-12-29T08:06:02;8.77;;;1.38;;
57567;SDS011;43403;51.948;5.922;2022-12-29T08:08:29;9.85;;;1.88;;
57567;SDS011;43403;51.948;5.922;2022-12-29T08:10:55;8.80;;;1.33;;
57567;SDS011;43403;51.948;5.922;2022-12-29T08:13:22;11.95;;;1.83;;
57567;SDS011;43403;51.948;5.922;2022-12-29T08:15:49;9.07;;;1.40;;
57567;SDS011;43403;51.948;5.922;2022-12-29T08:18:15;10.32;;;1.38;;
57567;SDS011;43403;51.948;5.922;2022-12-29T08:20:42;9.23;;;1.23;;
57567;SDS011;43403;51.948;5.922;2022-12-29T08:23:08;11.50;;;2.17;;
57567;SDS011;43403;51.948;5.922;2022-12-29T08:25:34;10.23;;;1.33;;
57567;SDS011;43403;51.948;5.922;2022-12-29T08:28:01;8.70;;;1.60;;
57567;SDS011;43403;51.948;5.922;2022-12-29T08:30:27;5.35;;;1.02;;
57567;SDS011;43403;51.948;5.922;2022-12-29T08:32:54;6.90;;;1.30;;
57567;SDS011;43403;51.948;5.922;2022-12-29T08:35:20;5.03;;;1.23;;
57567;SDS011;43403;51.948;5.922;2022-12-29T08:37:47;9.25;;;1.48;;
57567;SDS011;43403;51.948;5.922;2022-12-29T08:40:13;4.90;;;1.13;;
57567;SDS011;43403;51.948;5.922;2022-12-29T08:42:40;7.40;;;1.30;;
57567;SDS011;43403;51.948;5.922;2022-12-29T08:45:06;6.13;;;1.10;;
57567;SDS011;43403;51.948;5.922;2022-12-29T08:47:34;8.55;;;1.67;;
57567;SDS011;43403;51.948;5.922;2022-12-29T08:50:01;10.02;;;1.75;;
57567;SDS011;43403;51.948;5.922;2022-12-29T08:52:27;7.82;;;1.58;;
57567;SDS011;43403;51.948;5.922;2022-12-29T08:54:54;7.03;;;1.08;;
57567;SDS011;43403;51.948;5.922;2022-12-29T08:57:20;8.82;;;1.55;;
57567;SDS011;43403;51.948;5.922;2022-12-29T08:59:46;7.75;;;1.38;;
57567;SDS011;43403;51.948;5.922;2022-12-29T09:02:13;8.30;;;1.42;;
57567;SDS011;43403;51.948;5.922;2022-12-29T09:04:47;11.35;;;1.42;;
57567;SDS011;43403;51.948;5.922;2022-12-29T09:07:14;8.65;;;1.60;;
57567;SDS011;43403;51.948;5.922;2022-12-29T09:09:40;8.32;;;1.40;;
57567;SDS011;43403;51.948;5.922;2022-12-29T09:12:06;10.65;;;1.83;;
57567;SDS011;43403;51.948;5.922;2022-12-29T09:14:33;6.38;;;1.30;;
57567;SDS011;43403;51.948;5.922;2022-12-29T09:16:59;7.28;;;1.55;;
57567;SDS011;43403;51.948;5.922;2022-12-29T09:19:44;12.85;;;1.73;;
57567;SDS011;43403;51.948;5.922;2022-12-29T09:22:11;9.40;;;1.33;;
57567;SDS011;43403;51.948;5.922;2022-12-29T09:24:38;8.23;;;1.23;;
57567;SDS011;43403;51.948;5.922;2022-12-29T09:27:04;9.45;;;1.23;;
57567;SDS011;43403;51.948;5.922;2022-12-29T09:29:30;10.30;;;1.88;;
57567;SDS011;43403;51.948;5.922;2022-12-29T09:31:57;8.18;;;1.83;;
57567;SDS011;43403;51.948;5.922;2022-12-29T09:34:23;13.32;;;1.75;;
57567;SDS011;43403;51.948;5.922;2022-12-29T09:36:50;9.50;;;1.52;;
57567;SDS011;43403;51.948;5.922;2022-12-29T09:39:16;7.70;;;1.48;;
57567;SDS011;43403;51.948;5.922;2022-12-29T09:41:47;6.97;;;1.38;;
57567;SDS011;43403;51.948;5.922;2022-12-29T09:47:05;13.48;;;1.60;;
57567;SDS011;43403;51.948;5.922;2022-12-29T09:49:40;9.32;;;1.65;;
57567;SDS011;43403;51.948;5.922;2022-12-29T09:52:13;11.13;;;1.30;;
57567;SDS011;43403;51.948;5.922;2022-12-29T09:55:00;10.25;;;1.83;;
57567;SDS011;43403;51.948;5.922;2022-12-29T09:57:43;12.00;;;1.95;;
57567;SDS011;43403;51.948;5.922;2022-12-29T10:00:16;5.65;;;0.90;;
57567;SDS011;43403;51.948;5.922;2022-12-29T10:02:49;9.82;;;1.45;;
57567;SDS011;43403;51.948;5.922;2022-12-29T10:05:33;9.75;;;1.35;;
57567;SDS011;43403;51.948;5.922;2022-12-29T10:08:10;9.60;;;1.25;;
57567;SDS011;43403;51.948;5.922;2022-12-29T10:10:46;9.57;;;1.40;;
57567;SDS011;43403;51.948;5.922;2022-12-29T10:24:02;9.68;;;1.58;;
57567;SDS011;43403;51.948;5.922;2022-12-29T10:26:36;10.63;;;1.85;;
57567;SDS011;43403;51.948;5.922;2022-12-29T10:29:06;7.80;;;1.63;;
57567;SDS011;43403;51.948;5.922;2022-12-29T10:34:26;5.13;;;1.50;;
57567;SDS011;43403;51.948;5.922;2022-12-29T10:37:03;5.88;;;1.30;;
57567;SDS011;43403;51.948;5.922;2022-12-29T10:42:11;7.45;;;1.45;;
57567;SDS011;43403;51.948;5.922;2022-12-29T10:44:45;9.60;;;1.40;;
57567;SDS011;43403;51.948;5.922;2022-12-29T10:47:15;10.90;;;1.42;;
57567;SDS011;43403;51.948;5.922;2022-12-29T10:49:45;7.30;;;1.30;;
57567;SDS011;43403;51.948;5.922;2022-12-29T10:52:14;7.00;;;1.48;;
57567;SDS011;43403;51.948;5.922;2022-12-29T10:54:51;4.63;;;1.00;;
57567;SDS011;43403;51.948;5.922;2022-12-29T10:59:58;7.70;;;1.23;;
57567;SDS011;43403;51.948;5.922;2022-12-29T11:05:25;7.15;;;1.48;;
57567;SDS011;43403;51.948;5.922;2022-12-29T11:08:14;6.85;;;1.50;;
57567;SDS011;43403;51.948;5.922;2022-12-29T11:10:45;8.18;;;1.65;;
57567;SDS011;43403;51.948;5.922;2022-12-29T11:13:16;5.93;;;1.63;;
57567;SDS011;43403;51.948;5.922;2022-12-29T11:15:48;5.88;;;1.85;;
57567;SDS011;43403;51.948;5.922;2022-12-29T11:18:20;9.50;;;1.83;;
57567;SDS011;43403;51.948;5.922;2022-12-29T11:20:47;10.43;;;1.80;;
57567;SDS011;43403;51.948;5.922;2022-12-29T11:23:48;10.10;;;1.87;;
57567;SDS011;43403;51.948;5.922;2022-12-29T11:26:12;8.15;;;1.98;;
57567;SDS011;43403;51.948;5.922;2022-12-29T11:28:43;8.68;;;1.98;;
57567;SDS011;43403;51.948;5.922;2022-12-29T11:31:42;7.38;;;2.10;;
57567;SDS011;43403;51.948;5.922;2022-12-29T11:34:16;7.75;;;1.90;;
57567;SDS011;43403;51.948;5.922;2022-12-29T11:36:50;8.80;;;2.20;;
57567;SDS011;43403;51.948;5.922;2022-12-29T11:42:16;12.10;;;2.78;;
57567;SDS011;43403;51.948;5.922;2022-12-29T11:44:46;7.70;;;1.90;;
57567;SDS011;43403;51.948;5.922;2022-12-29T11:50:02;9.18;;;2.55;;
57567;SDS011;43403;51.948;5.922;2022-12-29T11:52:35;12.40;;;2.50;;
57567;SDS011;43403;51.948;5.922;2022-12-29T11:55:06;10.60;;;2.53;;
57567;SDS011;43403;51.948;5.922;2022-12-29T11:57:42;10.63;;;2.33;;
57567;SDS011;43403;51.948;5.922;2022-12-29T12:00:20;9.80;;;1.98;;
57567;SDS011;43403;51.948;5.922;2022-12-29T12:03:12;9.23;;;2.33;;
57567;SDS011;43403;51.948;5.922;2022-12-29T12:05:48;15.18;;;3.00;;
57567;SDS011;43403;51.948;5.922;2022-12-29T12:08:37;15.98;;;3.08;;
57567;SDS011;43403;51.948;5.922;2022-12-29T12:11:10;7.70;;;2.70;;
57567;SDS011;43403;51.948;5.922;2022-12-29T12:14:04;10.20;;;2.83;;
57567;SDS011;43403;51.948;5.922;2022-12-29T12:16:36;11.30;;;2.40;;
57567;SDS011;43403;51.948;5.922;2022-12-29T12:21:43;13.80;;;2.70;;
57567;SDS011;43403;51.948;5.922;2022-12-29T12:24:36;10.27;;;2.80;;
57567;SDS011;43403;51.948;5.922;2022-12-29T12:27:13;9.68;;;2.28;;
57567;SDS011;43403;51.948;5.922;2022-12-29T12:32:38;9.23;;;2.28;;
57567;SDS011;43403;51.948;5.922;2022-12-29T12:35:16;13.05;;;3.00;;
57567;SDS011;43403;51.948;5.922;2022-12-29T12:40:43;12.50;;;3.00;;
57567;SDS011;43403;51.948;5.922;2022-12-29T12:49:11;9.90;;;2.17;;
57567;SDS011;43403;51.948;5.922;2022-12-29T12:58:00;12.98;;;3.28;;
57567;SDS011;43403;51.948;5.922;2022-12-29T13:00:42;13.20;;;2.22;;
57567;SDS011;43403;51.948;5.922;2022-12-29T13:03:26;12.10;;;2.33;;
57567;SDS011;43403;51.948;5.922;2022-12-29T13:06:26;13.88;;;2.47;;
57567;SDS011;43403;51.948;5.922;2022-12-29T13:12:03;14.90;;;2.67;;
57567;SDS011;43403;51.948;5.922;2022-12-29T13:14:53;13.63;;;2.83;;
57567;SDS011;43403;51.948;5.922;2022-12-29T13:17:41;10.30;;;2.58;;
57567;SDS011;43403;51.948;5.922;2022-12-29T13:20:42;12.95;;;2.90;;
57567;SDS011;43403;51.948;5.922;2022-12-29T13:23:16;9.93;;;2.30;;
57567;SDS011;43403;51.948;5.922;2022-12-29T13:31:29;12.05;;;2.33;;
57567;SDS011;43403;51.948;5.922;2022-12-29T13:36:54;11.85;;;2.63;;
57567;SDS011;43403;51.948;5.922;2022-12-29T13:42:01;8.95;;;2.35;;
57567;SDS011;43403;51.948;5.922;2022-12-29T13:44:34;14.07;;;2.60;;
57567;SDS011;43403;51.948;5.922;2022-12-29T13:47:07;8.90;;;2.10;;
57567;SDS011;43403;51.948;5.922;2022-12-29T13:49:45;11.90;;;2.38;;
57567;SDS011;43403;51.948;5.922;2022-12-29T13:52:15;9.17;;;2.60;;
57567;SDS011;43403;51.948;5.922;2022-12-29T13:57:48;10.13;;;2.05;;
57567;SDS011;43403;51.948;5.922;2022-12-29T14:00:21;8.30;;;2.10;;
57567;SDS011;43403;51.948;5.922;2022-12-29T14:03:00;11.30;;;2.63;;
57567;SDS011;43403;51.948;5.922;2022-12-29T14:06:10;10.13;;;2.30;;
57567;SDS011;43403;51.948;5.922;2022-12-29T14:08:41;11.82;;;2.55;;
57567;SDS011;43403;51.948;5.922;2022-12-29T14:11:10;13.77;;;2.63;;
57567;SDS011;43403;51.948;5.922;2022-12-29T14:13:42;7.50;;;1.90;;
57567;SDS011;43403;51.948;5.922;2022-12-29T14:16:21;10.57;;;2.17;;
57567;SDS011;43403;51.948;5.922;2022-12-29T14:18:53;10.32;;;2.42;;
57567;SDS011;43403;51.948;5.922;2022-12-29T14:21:23;10.63;;;2.20;;
57567;SDS011;43403;51.948;5.922;2022-12-29T14:24:00;6.90;;;1.65;;
57567;SDS011;43403;51.948;5.922;2022-12-29T14:37:25;3.22;;;1.00;;
57567;SDS011;43403;51.948;5.922;2022-12-29T14:42:47;4.85;;;1.35;;
57567;SDS011;43403;51.948;5.922;2022-12-29T14:47:41;7.60;;;1.52;;
57567;SDS011;43403;51.948;5.922;2022-12-29T15:01:05;8.07;;;2.40;;
57567;SDS011;43403;51.948;5.922;2022-12-29T15:03:45;6.43;;;1.70;;
57567;SDS011;43403;51.948;5.922;2022-12-29T15:06:16;7.25;;;1.70;;
57567;SDS011;43403;51.948;5.922;2022-12-29T15:08:58;7.25;;;1.67;;
57567;SDS011;43403;51.948;5.922;2022-12-29T15:11:48;8.88;;;1.67;;
57567;SDS011;43403;51.948;5.922;2022-12-29T15:14:35;8.00;;;1.65;;
57567;SDS011;43403;51.948;5.922;2022-12-29T15:17:24;8.40;;;1.90;;
57567;SDS011;43403;51.948;5.922;2022-12-29T15:19:54;9.70;;;3.10;;
57567;SDS011;43403;51.948;5.922;2022-12-29T15:24:49;9.73;;;1.92;;
57567;SDS011;43403;51.948;5.922;2022-12-29T15:27:22;13.88;;;2.30;;
57567;SDS011;43403;51.948;5.922;2022-12-29T15:29:57;6.38;;;1.77;;
57567;SDS011;43403;51.948;5.922;2022-12-29T15:32:30;11.05;;;2.42;;
57567;SDS011;43403;51.948;5.922;2022-12-29T15:38:13;6.95;;;2.10;;
57567;SDS011;43403;51.948;5.922;2022-12-29T15:40:43;8.95;;;2.53;;
57567;SDS011;43403;51.948;5.922;2022-12-29T15:46:19;6.28;;;1.70;;
57567;SDS011;43403;51.948;5.922;2022-12-29T15:48:46;9.55;;;2.00;;
57567;SDS011;43403;51.948;5.922;2022-12-29T15:51:17;11.07;;;3.42;;
57567;SDS011;43403;51.948;5.922;2022-12-29T15:53:47;8.07;;;1.85;;
57567;SDS011;43403;51.948;5.922;2022-12-29T15:56:16;7.32;;;1.60;;
57567;SDS011;43403;51.948;5.922;2022-12-29T15:58:44;7.43;;;1.70;;
57567;SDS011;43403;51.948;5.922;2022-12-29T16:03:55;4.32;;;1.25;;
57567;SDS011;43403;51.948;5.922;2022-12-29T16:06:26;8.35;;;1.50;;
57567;SDS011;43403;51.948;5.922;2022-12-29T16:11:41;16.88;;;4.43;;
57567;SDS011;43403;51.948;5.922;2022-12-29T16:14:17;7.95;;;1.95;;
57567;SDS011;43403;51.948;5.922;2022-12-29T16:16:47;9.10;;;1.85;;
57567;SDS011;43403;51.948;5.922;2022-12-29T16:19:19;12.15;;;3.05;;
57567;SDS011;43403;51.948;5.922;2022-12-29T16:21:54;11.82;;;2.55;;
57567;SDS011;43403;51.948;5.922;2022-12-29T16:24:22;9.45;;;2.00;;
57567;SDS011;43403;51.948;5.922;2022-12-29T16:26:54;9.90;;;1.90;;
57567;SDS011;43403;51.948;5.922;2022-12-29T16:29:29;8.82;;;2.45;;
57567;SDS011;43403;51.948;5.922;2022-12-29T16:31:59;6.63;;;1.75;;
57567;SDS011;43403;51.948;5.922;2022-12-29T16:34:32;8.15;;;1.75;;
57567;SDS011;43403;51.948;5.922;2022-12-29T16:40:13;6.15;;;1.80;;
57567;SDS011;43403;51.948;5.922;2022-12-29T16:43:00;8.30;;;2.05;;
57567;SDS011;43403;51.948;5.922;2022-12-29T16:51:28;4.53;;;1.30;;
57567;SDS011;43403;51.948;5.922;2022-12-29T16:53:57;6.43;;;1.60;;
57567;SDS011;43403;51.948;5.922;2022-12-29T16:56:30;5.90;;;1.35;;
57567;SDS011;43403;51.948;5.922;2022-12-29T17:01:45;4.35;;;1.50;;
57567;SDS011;43403;51.948;5.922;2022-12-29T17:04:12;4.03;;;1.10;;
57567;SDS011;43403;51.948;5.922;2022-12-29T17:06:40;6.15;;;1.30;;
57567;SDS011;43403;51.948;5.922;2022-12-29T17:09:15;5.85;;;1.23;;
57567;SDS011;43403;51.948;5.922;2022-12-29T17:11:53;5.68;;;1.27;;
57567;SDS011;43403;51.948;5.922;2022-12-29T17:17:24;7.15;;;1.27;;
57567;SDS011;43403;51.948;5.922;2022-12-29T17:19:54;6.03;;;2.42;;
57567;SDS011;43403;51.948;5.922;2022-12-29T17:22:25;8.57;;;1.60;;
57567;SDS011;43403;51.948;5.922;2022-12-29T17:24:53;11.60;;;1.92;;
57567;SDS011;43403;51.948;5.922;2022-12-29T17:27:27;4.78;;;1.33;;
57567;SDS011;43403;51.948;5.922;2022-12-29T17:30:16;7.13;;;1.52;;
57567;SDS011;43403;51.948;5.922;2022-12-29T17:32:48;9.02;;;1.27;;
57567;SDS011;43403;51.948;5.922;2022-12-29T17:35:21;5.85;;;1.30;;
57567;SDS011;43403;51.948;5.922;2022-12-29T17:37:48;4.25;;;1.30;;
57567;SDS011;43403;51.948;5.922;2022-12-29T17:40:24;6.63;;;1.20;;
57567;SDS011;43403;51.948;5.922;2022-12-29T17:42:54;6.50;;;0.95;;
57567;SDS011;43403;51.948;5.922;2022-12-29T17:45:25;8.02;;;1.35;;
57567;SDS011;43403;51.948;5.922;2022-12-29T17:47:53;5.78;;;1.08;;
57567;SDS011;43403;51.948;5.922;2022-12-29T17:50:25;5.37;;;1.10;;
57567;SDS011;43403;51.948;5.922;2022-12-29T17:52:56;11.05;;;1.75;;